Time;durP1;ratioP1;P1;durP2;ratioP2;P2;SDS_P1;SDS_P2;PMS_P1;PMS_P2;Temp;Humidity;BMP_temperature;BMP_pressure;BME280_temperature;BME280_humidity;BME280_pressure;Samples;Min_cycle;Max_cycle;Signal;HPM_P1;HPM_P2
2022/01/07 00:00:19;;;;;;;9.32;3.10;;;2.80;99.90;;;0.90;100.00;101255.31;2568700;30;139238;-40
2022/01/07 00:02:56;;;;;;;11.65;3.20;;;2.70;99.90;;;0.92;99.95;101252.47;2567309;30;137513;-40
2022/01/07 00:05:27;;;;;;;9.93;3.13;;;2.70;99.90;;;0.91;99.94;101243.56;2568630;30;137523;-40
2022/01/07 00:07:54;;;;;;;7.68;3.10;;;2.70;99.90;;;0.93;100.00;101249.66;2566727;30;137189;-40
2022/01/07 00:10:22;;;;;;;10.55;3.05;;;2.70;99.90;;;1.10;99.18;101237.38;2568946;30;137198;-40
2022/01/07 00:12:51;;;;;;;;;;;2.80;99.90;;;1.10;99.17;101228.47;2569260;30;137400;-40
2022/01/07 00:15:20;;;;;;;10.48;2.97;;;2.90;99.90;;;1.05;99.90;101233.38;2567261;30;138704;-40
2022/01/07 00:17:48;;;;;;;14.27;3.40;;;2.90;99.90;;;1.08;99.75;101230.44;2567484;30;137234;-40
2022/01/07 00:20:18;;;;;;;13.80;3.35;;;2.90;99.90;;;1.11;99.44;101232.84;2567673;30;138558;-40
2022/01/07 00:22:48;;;;;;;9.85;2.83;;;2.90;99.90;;;1.08;99.67;101225.91;2568032;30;137628;-40
2022/01/07 00:25:15;;;;;;;13.68;3.53;;;2.90;99.90;;;1.09;99.72;101216.03;2568659;30;138207;-40
2022/01/07 00:27:44;;;;;;;17.38;3.75;;;2.90;99.90;;;1.11;99.65;101216.72;2566535;30;137756;-40
2022/01/07 00:30:14;;;;;;;9.63;3.42;;;2.90;99.90;;;1.11;99.63;101211.34;2567987;30;137719;-40
2022/01/07 00:32:43;;;;;;;11.77;3.28;;;2.90;99.90;;;1.14;99.39;101209.22;2568490;30;138297;-40
2022/01/07 00:35:12;;;;;;;15.00;3.90;;;3.00;99.90;;;1.17;99.37;101205.41;2568378;30;137237;-44
2022/01/07 00:37:40;;;;;;;13.63;3.85;;;3.00;99.90;;;1.18;99.15;101200.84;2570856;30;136798;-40
2022/01/07 00:40:14;;;;;;;14.60;4.03;;;3.00;99.90;;;1.20;99.38;101197.06;2567855;30;138292;-40
2022/01/07 00:42:41;;;;;;;10.00;3.45;;;3.00;99.90;;;1.17;99.25;101199.16;2569709;30;139275;-41
2022/01/07 00:45:09;;;;;;;15.75;3.75;;;3.00;99.90;;;1.24;99.16;101189.56;2570246;30;138157;-40
2022/01/07 00:47:37;;;;;;;;;;;3.00;99.90;;;1.15;98.90;101177.81;2569691;30;138190;-40
2022/01/07 00:50:07;;;;;;;8.05;3.58;;;3.00;99.90;;;1.26;99.19;101177.66;2570083;30;139268;-40
2022/01/07 00:52:35;;;;;;;9.65;3.10;;;3.10;99.90;;;1.27;98.63;101171.28;2566856;30;136804;-40
2022/01/07 00:55:05;;;;;;;11.68;3.85;;;3.10;99.90;;;1.33;98.54;101171.75;2568209;30;138657;-40
2022/01/07 00:57:33;;;;;;;10.75;3.40;;;3.10;99.90;;;1.34;98.19;101170.75;2569255;30;137581;-40
2022/01/07 01:00:07;;;;;;;10.10;3.28;;;3.10;99.90;;;1.33;98.77;101171.75;2566999;30;138883;-40
2022/01/07 01:02:35;;;;;;;9.50;3.22;;;3.10;99.90;;;1.33;98.62;101161.81;2567504;30;136851;-40
2022/01/07 01:05:09;;;;;;;9.18;3.22;;;3.10;99.90;;;1.41;98.53;101166.47;2570848;30;138950;-40
2022/01/07 01:07:37;;;;;;;11.68;3.75;;;3.10;99.90;;;1.48;97.91;101166.75;2568958;30;137069;-42
2022/01/07 01:10:07;;;;;;;12.30;3.45;;;3.20;99.90;;;1.47;98.90;101171.28;2569934;30;137373;-40
2022/01/07 01:12:36;;;;;;;8.55;3.17;;;3.20;99.90;;;1.49;97.90;101158.53;2568909;30;137866;-43
2022/01/07 01:15:09;;;;;;;9.70;3.42;;;3.30;99.90;;;1.45;97.74;101151.75;2569229;30;138969;-40
2022/01/07 01:17:40;;;;;;;9.45;3.45;;;3.30;99.90;;;1.53;97.22;101165.31;2569580;30;137281;-40
2022/01/07 01:20:11;;;;;;;9.07;3.83;;;3.30;99.90;;;1.54;98.08;101153.56;2567954;30;138479;-40
2022/01/07 01:22:41;;;;;;;12.40;3.72;;;3.30;99.90;;;1.50;97.95;101148.63;2570554;30;138262;-42
2022/01/07 01:25:09;;;;;;;;;;;3.30;99.90;;;1.50;98.67;101143.25;2569411;30;137144;-44
2022/01/07 01:27:37;;;;;;;9.15;3.17;;;3.30;99.90;;;1.46;99.12;101141.81;2569187;30;137904;-40
2022/01/07 01:30:10;;;;;;;8.35;3.50;;;3.30;99.90;;;1.50;98.59;101137.88;2569442;30;138261;-40
2022/01/07 01:32:39;;;;;;;11.02;4.22;;;3.30;99.90;;;1.45;98.87;101130.22;2569330;30;136737;-40
2022/01/07 01:35:08;;;;;;;12.20;3.58;;;3.30;99.90;;;1.46;99.10;101118.47;2565644;30;138594;-40
2022/01/07 01:37:35;;;;;;;9.23;3.63;;;3.30;99.90;;;1.50;98.44;101114.50;2569970;30;136692;-40
2022/01/07 01:40:04;;;;;;;;;;;3.30;99.90;;;1.48;98.32;101108.44;2569753;30;138405;-40
2022/01/07 01:42:32;;;;;;;11.05;3.58;;;3.30;99.90;;;1.51;98.09;101112.69;2569466;30;137778;-41
2022/01/07 01:45:05;;;;;;;9.32;3.65;;;3.30;99.90;;;1.48;97.88;101103.03;2570915;30;137254;-40
2022/01/07 01:47:36;;;;;;;10.93;3.75;;;3.30;99.90;;;1.49;98.28;101111.97;2568963;30;139300;-40
2022/01/07 01:50:05;;;;;;;10.25;3.95;;;3.30;99.90;;;1.43;98.31;101108.03;2570424;30;138164;-40
2022/01/07 01:52:34;;;;;;;11.75;4.13;;;3.30;99.90;;;1.50;97.45;101102.91;2571193;30;137235;-40
2022/01/07 01:55:04;;;;;;;12.63;4.30;;;3.30;99.90;;;1.51;98.15;101108.13;2570513;30;138267;-40
2022/01/07 01:57:32;;;;;;;12.68;3.80;;;3.30;99.90;;;1.55;97.84;101104.16;2569464;30;138100;-40
2022/01/07 02:00:00;;;;;;;8.48;4.28;;;3.30;99.90;;;1.49;97.86;101096.69;2569308;30;138117;-40
2022/01/07 02:02:27;;;;;;;11.55;4.30;;;3.30;99.90;;;1.59;97.68;101107.41;2570265;30;137431;-40
2022/01/07 02:04:56;;;;;;;9.30;3.63;;;3.30;99.90;;;1.64;96.85;101101.59;2569819;30;139145;-41
2022/01/07 02:07:26;;;;;;;10.52;4.15;;;3.40;99.90;;;1.59;97.61;101093.97;2566189;30;137652;-40
2022/01/07 02:09:55;;;;;;;10.20;4.10;;;3.40;99.90;;;1.58;97.48;101101.16;2570766;30;138318;-40
2022/01/07 02:12:22;;;;;;;10.15;3.53;;;3.40;99.90;;;1.60;98.38;101092.13;2570461;30;136875;-40
2022/01/07 02:14:58;;;;;;;9.65;4.50;;;3.40;99.90;;;1.61;98.79;101086.59;2567334;30;138299;-41
2022/01/07 02:17:27;;;;;;;11.20;4.03;;;3.40;99.90;;;1.55;99.00;101090.69;2569707;30;137422;-40
2022/01/07 02:19:56;;;;;;;12.32;4.97;;;3.40;99.90;;;1.50;99.78;101082.22;2568494;30;139403;-40
2022/01/07 02:22:24;;;;;;;11.93;4.10;;;3.30;99.90;;;1.59;99.50;101077.81;2570098;30;137265;-41
2022/01/07 02:24:53;;;;;;;10.50;4.32;;;3.30;99.90;;;1.57;99.83;101077.13;2569802;30;138283;-40
2022/01/07 02:27:22;;;;;;;8.68;3.53;;;3.40;99.90;;;1.55;100.00;101076.41;2568570;30;136933;-40
2022/01/07 02:29:51;;;;;;;10.52;3.75;;;3.30;99.90;;;1.52;100.00;101074.88;2567283;30;139111;-40
2022/01/07 02:32:19;;;;;;;11.48;4.50;;;3.30;99.90;;;1.49;100.00;101077.03;2568934;30;137515;-40
2022/01/07 02:34:48;;;;;;;10.88;3.95;;;3.30;99.90;;;1.43;100.00;101067.69;2569483;30;138145;-40
2022/01/07 02:37:16;;;;;;;11.95;4.82;;;3.20;99.90;;;1.38;100.00;101069.97;2569429;30;136666;-40
2022/01/07 02:39:45;;;;;;;10.75;3.90;;;3.20;99.90;;;1.35;100.00;101059.50;2570817;30;138164;-40
2022/01/07 02:42:13;;;;;;;11.68;4.10;;;3.20;99.90;;;1.37;100.00;101057.53;2569049;30;137156;-40
2022/01/07 02:44:41;;;;;;;7.53;4.07;;;3.20;99.90;;;1.37;100.00;101062.91;2568573;30;138303;-40
2022/01/07 02:47:09;;;;;;;10.65;4.07;;;3.20;99.90;;;1.41;100.00;101061.63;2568662;30;137500;-40
2022/01/07 02:49:36;;;;;;;9.75;4.07;;;3.20;99.90;;;1.31;100.00;101053.56;2569635;30;139049;-40
2022/01/07 02:52:04;;;;;;;8.80;3.88;;;3.10;99.90;;;1.31;100.00;101052.72;2568396;30;137477;-40
2022/01/07 02:54:32;;;;;;;10.05;4.00;;;3.10;99.90;;;1.28;100.00;101043.94;2570468;30;137312;-40
2022/01/07 02:57:00;;;;;;;8.80;3.63;;;3.10;99.90;;;1.24;100.00;101034.47;2571403;30;137549;-40
2022/01/07 02:59:27;;;;;;;11.63;4.28;;;3.10;99.90;;;1.19;100.00;101020.63;2568740;30;139257;-40
2022/01/07 03:01:55;;;;;;;9.13;3.78;;;3.00;99.90;;;1.13;100.00;101010.47;2569900;30;138719;-40
2022/01/07 03:04:24;;;;;;;10.77;3.97;;;3.00;99.90;;;1.12;100.00;101009.63;2568290;30;139290;-39
2022/01/07 03:06:51;;;;;;;7.57;3.88;;;3.00;99.90;;;1.10;100.00;101005.41;2570721;30;137665;-40
2022/01/07 03:09:19;;;;;;;9.82;4.10;;;3.00;99.90;;;0.99;100.00;100990.28;2568124;30;138120;-40
2022/01/07 03:11:47;;;;;;;9.98;4.47;;;2.90;99.90;;;1.04;100.00;100988.00;2568155;30;136841;-40
2022/01/07 03:14:15;;;;;;;9.85;4.18;;;2.90;99.90;;;1.05;100.00;100996.91;2569540;30;138364;-43
2022/01/07 03:16:43;;;;;;;8.45;3.88;;;2.90;99.90;;;1.02;100.00;100975.69;2570155;30;138407;-40
2022/01/07 03:19:11;;;;;;;7.95;3.85;;;2.80;99.90;;;1.02;100.00;100981.94;2569131;30;139066;-40
2022/01/07 03:21:38;;;;;;;8.65;3.90;;;2.80;99.90;;;0.99;100.00;100966.09;2570592;30;137194;-39
2022/01/07 03:24:06;;;;;;;10.55;4.40;;;2.80;99.90;;;0.96;100.00;100969.09;2570838;30;138377;-40
2022/01/07 03:26:34;;;;;;;9.23;4.25;;;2.80;99.90;;;0.96;100.00;100953.78;2569946;30;137662;-40
2022/01/07 03:29:01;;;;;;;11.00;4.65;;;2.80;99.90;;;1.00;100.00;100947.13;2570304;30;138242;-40
2022/01/07 06:37:42;;;;;;;6.63;2.05;;;2.80;99.90;;;1.18;100.00;100825.41;2568102;30;137355;-40
2022/01/07 06:40:11;;;;;;;5.47;2.10;;;3.00;99.90;;;1.23;100.00;100827.66;2568146;30;137380;-40
2022/01/07 06:42:38;;;;;;;5.85;2.00;;;3.00;99.90;;;1.29;100.00;100819.00;2568898;30;137451;-40
2022/01/07 06:45:07;;;;;;;7.55;2.58;;;3.10;99.90;;;1.28;100.00;100825.38;2567965;30;137870;-40
2022/01/07 06:47:35;;;;;;;4.85;2.10;;;3.10;99.90;;;1.34;100.00;100837.38;2567935;30;136770;-39
2022/01/07 06:50:04;;;;;;;8.45;2.97;;;3.10;99.90;;;1.36;100.00;100830.81;2568994;30;138154;-40
2022/01/07 06:52:32;;;;;;;4.38;2.20;;;3.10;99.90;;;1.36;100.00;100819.22;2568330;30;137222;-40
2022/01/07 06:54:59;;;;;;;4.88;2.20;;;3.10;99.90;;;1.37;100.00;100829.00;2567910;30;138293;-40
2022/01/07 06:57:27;;;;;;;5.85;2.45;;;3.20;99.90;;;1.43;100.00;100825.69;2568064;30;137414;-39
2022/01/07 06:59:55;;;;;;;6.88;2.25;;;3.20;99.90;;;1.39;100.00;100835.88;2568495;30;137514;-39
2022/01/07 07:02:22;;;;;;;6.00;2.22;;;3.20;99.90;;;1.47;100.00;100820.84;2568425;30;136881;-39
2022/01/07 07:04:50;;;;;;;5.80;2.30;;;3.20;99.90;;;1.48;100.00;100830.63;2568504;30;137359;-39
2022/01/07 07:07:18;;;;;;;3.70;2.17;;;3.30;99.90;;;1.51;100.00;100827.63;2565948;30;137093;-39
2022/01/07 07:09:45;;;;;;;4.55;2.22;;;3.30;99.90;;;1.50;100.00;100834.81;2568739;30;137332;-39
2022/01/07 07:12:13;;;;;;;6.95;2.47;;;3.30;99.90;;;1.53;100.00;100829.13;2568445;30;137039;-39
2022/01/07 07:14:41;;;;;;;6.75;2.40;;;3.30;99.90;;;1.54;100.00;100830.81;2568976;30;138534;-40
2022/01/07 07:17:10;;;;;;;9.88;2.60;;;3.30;99.90;;;1.57;100.00;100827.00;2567068;30;138650;-39
2022/01/07 07:19:39;;;;;;;5.88;2.60;;;3.40;99.90;;;1.56;100.00;100826.13;2567955;30;139355;-40
2022/01/07 07:22:07;;;;;;;7.07;2.53;;;3.30;99.90;;;1.57;100.00;100827.00;2566346;30;137768;-39
2022/01/07 07:24:34;;;;;;;5.18;2.22;;;3.40;99.90;;;1.59;100.00;100830.38;2568711;30;138342;-39
2022/01/07 07:27:02;;;;;;;7.10;2.60;;;3.40;99.90;;;1.62;100.00;100830.06;2567845;30;137378;-39
2022/01/07 07:29:29;;;;;;;7.95;2.78;;;3.40;99.90;;;1.65;100.00;100826.25;2567621;30;138370;-40
2022/01/07 07:31:59;;;;;;;5.63;2.45;;;3.40;99.90;;;1.71;100.00;100822.94;2567629;30;138367;-39
2022/01/07 07:37:08;;;;;;;6.93;3.13;;;3.50;99.90;;;1.69;100.00;100820.38;2568113;30;138274;-40
2022/01/07 07:39:36;;;;;;;6.18;2.45;;;3.50;99.90;;;1.74;100.00;100819.91;2568691;30;138381;-39
2022/01/07 07:42:05;;;;;;;8.50;2.60;;;3.50;99.90;;;1.78;100.00;100813.22;2568289;30;136996;-39
2022/01/07 07:44:35;;;;;;;8.35;2.35;;;3.50;99.90;;;1.84;100.00;100823.34;2568158;30;137928;-40
2022/01/07 07:47:03;;;;;;;;;;;3.60;99.90;;;1.88;100.00;100828.47;2568027;30;137458;-39
2022/01/07 07:49:31;;;;;;;5.97;2.42;;;3.60;99.90;;;1.91;100.00;100828.97;2567650;30;138173;-39
2022/01/07 07:51:58;;;;;;;6.28;2.67;;;3.60;99.90;;;1.94;100.00;100825.16;2568207;30;138277;-39
2022/01/07 07:54:26;;;;;;;3.55;2.08;;;3.70;99.90;;;1.94;100.00;100823.28;2567142;30;139387;-39
2022/01/07 07:56:57;;;;;;;6.03;2.00;;;3.70;99.90;;;2.00;100.00;100819.13;2567161;30;136900;-40
2022/01/07 07:59:26;;;;;;;9.27;2.72;;;3.70;99.90;;;2.06;100.00;100825.75;2567952;30;138194;-39
2022/01/07 08:01:53;;;;;;;6.13;2.38;;;3.80;99.90;;;2.11;100.00;100824.25;2568054;30;137093;-40
2022/01/07 08:04:21;;;;;;;;;;;3.80;99.90;;;2.16;100.00;100837.25;2568829;30;138256;-39
2022/01/07 08:06:50;;;;;;;5.28;2.20;;;3.90;99.90;;;2.21;100.00;100831.41;2567871;30;137163;-39
2022/01/07 08:09:18;;;;;;;6.70;2.03;;;3.90;99.90;;;2.22;100.00;100843.84;2568442;30;137946;-39
2022/01/07 08:11:50;;;;;;;;;;;4.00;99.90;;;2.20;100.00;100835.09;2569093;30;137635;-39
2022/01/07 08:17:07;;;;;;;4.60;2.05;;;4.00;99.90;;;2.25;100.00;100833.59;2568681;30;137558;-39
2022/01/07 08:19:36;;;;;;;4.22;2.17;;;4.00;99.90;;;2.26;100.00;100832.63;2567568;30;137826;-39
2022/01/07 08:22:04;;;;;;;6.38;2.50;;;4.00;99.90;;;2.26;100.00;100826.38;2568916;30;137412;-40
2022/01/07 08:24:32;;;;;;;5.30;1.95;;;4.00;99.90;;;2.33;100.00;100835.50;2568296;30;138244;-39
2022/01/07 08:27:01;;;;;;;5.05;2.17;;;4.10;99.90;;;2.30;100.00;100827.75;2566806;30;138628;-39
2022/01/07 08:29:42;;;;;;;5.57;2.33;;;4.10;99.90;;;2.34;100.00;100834.50;2568998;30;137338;-40
2022/01/07 08:34:57;;;;;;;5.25;2.08;;;4.10;99.90;;;2.36;100.00;100829.81;2566259;30;138303;-39
2022/01/07 08:37:28;;;;;;;4.70;1.83;;;4.10;99.90;;;2.35;100.00;100825.44;2568013;30;137383;-39
2022/01/07 08:39:56;;;;;;;6.03;2.35;;;4.10;99.90;;;2.34;100.00;100828.28;2567541;30;137491;-40
2022/01/07 08:42:26;;;;;;;4.57;2.22;;;4.10;99.90;;;2.37;100.00;100818.03;2568390;30;137524;-40
2022/01/07 08:44:54;;;;;;;3.72;2.20;;;4.10;99.90;;;2.34;100.00;100815.66;2568529;30;138535;-40
2022/01/07 08:47:23;;;;;;;;;;;4.10;99.90;;;2.39;100.00;100807.13;2569090;30;137092;-40
2022/01/07 08:49:53;;;;;;;4.05;2.05;;;4.10;99.90;;;2.38;100.00;100795.47;2567584;30;137787;-39
2022/01/07 08:52:21;;;;;;;4.32;1.88;;;4.10;99.90;;;2.38;100.00;100805.44;2568746;30;136981;-40
2022/01/07 08:54:52;;;;;;;3.45;2.03;;;4.10;99.90;;;2.44;100.00;100800.25;2568790;30;138439;-39
2022/01/07 08:57:21;;;;;;;6.38;2.30;;;4.10;99.90;;;2.43;100.00;100798.56;2568875;30;137037;-40
2022/01/07 08:59:49;;;;;;;3.22;1.80;;;4.20;99.90;;;2.50;100.00;100784.44;2567802;30;137360;-40
2022/01/07 09:02:17;;;;;;;4.43;2.10;;;4.20;99.90;;;2.52;100.00;100787.81;2568432;30;136834;-40
2022/01/07 09:04:45;;;;;;;4.03;2.28;;;4.20;99.90;;;2.54;100.00;100786.69;2567802;30;138395;-40
2022/01/07 09:07:13;;;;;;;4.00;1.95;;;4.30;99.90;;;2.58;100.00;100792.56;2567430;30;136887;-40
2022/01/07 09:09:41;;;;;;;5.95;2.13;;;4.30;99.90;;;2.60;100.00;100801.31;2566769;30;138419;-39
2022/01/07 09:12:09;;;;;;;5.25;2.28;;;4.30;99.90;;;2.61;100.00;100811.09;2568093;30;137584;-40
2022/01/07 09:14:37;;;;;;;4.53;2.00;;;4.30;99.90;;;2.64;100.00;100818.03;2567635;30;138268;-39
2022/01/07 09:17:06;;;;;;;3.55;1.88;;;4.30;99.90;;;2.67;100.00;100812.31;2567435;30;137681;-39
2022/01/07 09:19:33;;;;;;;3.25;1.92;;;4.40;99.90;;;2.69;100.00;100813.84;2567628;30;138640;-40
2022/01/07 09:22:01;;;;;;;4.50;2.17;;;4.40;99.90;;;2.68;100.00;100808.63;2567340;30;138212;-39
2022/01/07 09:24:29;;;;;;;4.32;2.08;;;4.40;99.90;;;2.76;100.00;100815.91;2567723;30;139167;-39
2022/01/07 09:26:58;;;;;;;7.05;2.22;;;4.50;99.90;;;2.72;100.00;100812.66;2567465;30;137090;-40
2022/01/07 09:29:27;;;;;;;4.85;1.77;;;4.40;99.90;;;2.77;100.00;100806.81;2568092;30;136792;-40
2022/01/07 09:31:55;;;;;;;4.35;1.50;;;4.50;99.90;;;2.81;100.00;100818.94;2568656;30;136826;-40
2022/01/07 09:34:23;;;;;;;3.97;1.60;;;4.50;99.90;;;2.79;100.00;100818.25;2567194;30;137145;-40
2022/01/07 09:36:54;;;;;;;4.80;1.70;;;4.50;99.90;;;2.82;100.00;100812.53;2567387;30;138558;-40
2022/01/07 09:39:22;;;;;;;;;;;4.50;99.90;;;2.84;100.00;100808.69;2568267;30;138123;-39
2022/01/07 09:41:50;;;;;;;3.08;1.60;;;4.50;99.90;;;2.88;100.00;100810.06;2568254;30;137077;-39
2022/01/07 09:44:17;;;;;;;;;;;4.60;99.90;;;2.89;100.00;100818.97;2567672;30;137756;-40
2022/01/07 09:46:45;;;;;;;2.42;1.48;;;4.60;99.90;;;2.87;100.00;100802.97;2568303;30;136701;-39
2022/01/07 09:49:12;;;;;;;3.17;1.40;;;4.60;99.90;;;2.93;100.00;100808.72;2567738;30;138367;-40
2022/01/07 09:51:42;;;;;;;3.97;1.60;;;4.60;99.90;;;2.93;100.00;100809.59;2567858;30;137114;-40
2022/01/07 09:54:10;;;;;;;3.10;1.58;;;4.60;99.90;;;2.98;100.00;100812.63;2567599;30;137844;-39
2022/01/07 09:56:39;;;;;;;2.65;1.50;;;4.70;99.90;;;2.97;100.00;100815.47;2567957;30;138487;-40
2022/01/07 09:59:07;;;;;;;4.03;1.40;;;4.70;99.90;;;3.02;100.00;100810.44;2566827;30;138409;-40
2022/01/07 10:02:17;;;;;;;4.90;1.40;;;4.70;99.90;;;3.02;100.00;100810.44;2567640;30;136953;-40
2022/01/07 10:04:45;;;;;;;3.03;1.40;;;4.70;99.90;;;3.04;100.00;100807.59;2568373;30;138262;-40
2022/01/07 10:07:24;;;;;;;3.83;1.50;;;4.80;99.90;;;3.13;100.00;100806.59;2566564;30;136718;-39
2022/01/07 10:10:10;;;;;;;3.10;1.40;;;4.80;99.90;;;3.11;100.00;100808.63;2566640;30;137656;-39
2022/01/07 10:13:03;;;;;;;2.05;1.25;;;4.80;99.90;;;3.16;100.00;100811.66;2566938;30;137027;-40
2022/01/07 10:15:38;;;;;;;3.35;1.40;;;4.80;99.90;;;3.19;100.00;100821.28;2568041;30;138581;-40
2022/01/07 10:18:09;;;;;;;3.03;1.55;;;4.90;99.90;;;3.16;100.00;100809.81;2567832;30;137421;-39
2022/01/07 10:20:38;;;;;;;3.97;1.48;;;4.90;99.90;;;3.21;100.00;100811.16;2568907;30;138394;-39
2022/01/07 10:23:13;;;;;;;3.17;1.50;;;4.90;99.90;;;3.24;100.00;100809.00;2567530;30;136800;-40
2022/01/07 10:25:47;;;;;;;2.80;1.45;;;4.90;99.90;;;3.23;100.00;100799.22;2568345;30;139207;-40
2022/01/07 10:28:19;;;;;;;2.45;1.30;;;5.00;99.90;;;3.27;100.00;100800.56;2567037;30;136969;-40
2022/01/07 10:30:52;;;;;;;4.10;1.50;;;4.90;99.90;;;3.24;100.00;100800.06;2566303;30;139251;-39
2022/01/07 10:33:30;;;;;;;4.65;1.50;;;5.00;99.90;;;3.26;100.00;100798.91;2567566;30;137461;-40
2022/01/07 10:36:08;;;;;;;3.65;1.48;;;5.00;99.90;;;3.31;100.00;100799.22;2569738;30;138278;-40
2022/01/07 10:38:53;;;;;;;3.10;1.30;;;5.00;99.90;;;3.33;100.00;100800.91;2568010;30;137027;-40
2022/01/07 10:41:21;;;;;;;2.45;1.20;;;5.00;99.90;;;3.40;100.00;100793.84;2568071;30;138347;-40
2022/01/07 10:43:52;;;;;;;3.40;1.50;;;5.10;99.90;;;3.38;100.00;100788.63;2566258;30;137310;-40
2022/01/07 10:46:27;;;;;;;3.00;1.50;;;5.10;99.90;;;3.43;100.00;100780.88;2566778;30;138402;-40
2022/01/07 10:49:02;;;;;;;2.72;1.50;;;5.10;99.90;;;3.45;100.00;100778.03;2566241;30;137447;-40
2022/01/07 10:51:38;;;;;;;3.03;1.25;;;5.10;99.90;;;3.48;100.00;100771.44;2567771;30;138366;-40
2022/01/07 10:54:10;;;;;;;2.20;1.38;;;5.10;99.90;;;3.52;100.00;100770.09;2568063;30;138218;-40
2022/01/07 10:56:47;;;;;;;2.78;1.40;;;5.20;99.90;;;3.57;100.00;100773.13;2567352;30;138490;-40
2022/01/07 10:59:20;;;;;;;3.47;1.60;;;5.20;99.90;;;3.57;100.00;100762.34;2566582;30;137330;-40
2022/01/07 11:01:54;;;;;;;3.78;1.85;;;5.20;99.90;;;3.59;100.00;100766.56;2565163;30;137493;-40
2022/01/07 11:04:31;;;;;;;3.63;1.60;;;5.30;99.90;;;3.58;100.00;100762.19;2565688;30;138331;-40
2022/01/07 11:07:00;;;;;;;2.42;1.42;;;5.30;99.90;;;3.62;100.00;100751.91;2567613;30;138171;-39
2022/01/07 11:09:28;;;;;;;3.50;1.90;;;5.30;99.90;;;3.74;100.00;100760.50;2568257;30;137435;-40
2022/01/07 11:12:01;;;;;;;6.05;1.83;;;5.40;99.90;;;3.84;100.00;100768.41;2567927;30;138543;-40
2022/01/07 11:14:35;;;;;;;4.22;1.50;;;5.40;99.90;;;3.87;100.00;100763.53;2566895;30;137449;-40
2022/01/07 11:17:06;;;;;;;3.35;1.73;;;5.50;99.90;;;3.99;100.00;100763.19;2564723;30;137877;-40
2022/01/07 11:19:39;;;;;;;3.47;1.70;;;5.60;99.90;;;4.03;100.00;100759.13;2567853;30;137304;-40
2022/01/07 11:22:14;;;;;;;6.30;1.88;;;5.70;99.90;;;4.02;100.00;100746.66;2567361;30;138993;-40
2022/01/07 11:24:45;;;;;;;3.88;1.70;;;5.70;99.90;;;4.14;100.00;100750.66;2568581;30;137442;-40
2022/01/07 11:27:22;;;;;;;3.47;1.50;;;5.70;99.90;;;4.25;99.10;100746.75;2568293;30;137734;-40
2022/01/07 11:30:07;;;;;;;2.67;1.58;;;5.80;99.90;;;4.25;97.53;100749.47;2567171;30;137606;-40
2022/01/07 11:32:45;;;;;;;4.70;1.85;;;5.90;99.90;;;4.29;98.53;100747.25;2568332;30;138937;-40
2022/01/07 11:35:19;;;;;;;4.00;1.67;;;5.90;99.90;;;4.29;97.73;100748.09;2569367;30;137544;-40
2022/01/07 11:37:47;;;;;;;2.80;1.42;;;5.90;99.90;;;4.28;97.79;100750.97;2569210;30;138514;-40
2022/01/07 11:40:31;;;;;;;5.18;1.80;;;5.90;99.90;;;4.31;98.76;100745.22;2565640;30;137883;-40
2022/01/07 11:43:05;;;;;;;4.72;1.52;;;5.90;99.90;;;4.32;99.58;100730.72;2568054;30;136892;-40
2022/01/07 11:45:35;;;;;;;2.95;1.50;;;6.00;99.90;;;4.28;98.47;100740.19;2569243;30;136809;-40
2022/01/07 11:48:12;;;;;;;4.55;1.75;;;6.00;99.90;;;4.23;98.03;100727.19;2568604;30;138221;-40
2022/01/07 11:50:56;;;;;;;3.70;1.75;;;6.00;99.90;;;4.12;97.82;100728.38;2566732;30;137348;-40
2022/01/07 11:53:50;;;;;;;3.83;1.70;;;5.90;99.90;;;4.10;98.26;100735.81;2566993;30;138476;-40
2022/01/07 11:56:24;;;;;;;2.83;1.70;;;5.80;99.90;;;4.09;98.65;100726.03;2567823;30;139488;-40
2022/01/07 11:58:57;;;;;;;4.93;1.80;;;5.80;99.90;;;4.09;99.40;100728.75;2565997;30;137243;-40
2022/01/07 12:01:35;;;;;;;4.32;1.90;;;5.80;99.90;;;4.02;99.29;100733.97;2567573;30;138122;-40
2022/01/07 12:04:19;;;;;;;;;;;5.70;99.90;;;4.05;99.10;100727.41;2567348;30;138259;-40
2022/01/07 12:06:50;;;;;;;4.05;1.73;;;5.70;99.90;;;4.09;99.10;100722.47;2568518;30;136913;-40
2022/01/07 12:09:25;;;;;;;4.65;1.73;;;5.80;99.90;;;4.12;98.50;100730.25;2568392;30;138407;-40
2022/01/07 12:12:06;;;;;;;5.50;1.70;;;5.80;99.90;;;4.11;99.65;100728.53;2566614;30;137415;-40
2022/01/07 12:14:44;;;;;;;6.03;1.77;;;5.80;99.90;;;4.09;99.92;100722.47;2565579;30;138148;-40
2022/01/07 12:17:15;;;;;;;4.45;2.33;;;5.80;99.90;;;4.12;99.07;100719.47;2569002;30;138306;-39
2022/01/07 12:19:52;;;;;;;6.47;2.00;;;5.80;99.90;;;4.15;99.10;100716.41;2569484;30;138226;-39
2022/01/07 12:22:20;;;;;;;6.10;2.10;;;5.80;99.90;;;4.13;99.09;100699.53;2565968;30;137434;-40
2022/01/07 12:24:57;;;;;;;5.28;2.05;;;5.80;99.90;;;4.23;100.00;100712.81;2567915;30;139011;-40
2022/01/07 12:27:25;;;;;;;6.50;2.30;;;5.90;99.90;;;4.25;100.00;100713.53;2568271;30;137656;-40
2022/01/07 12:29:56;;;;;;;6.70;2.20;;;5.90;99.90;;;4.25;98.40;100694.63;2567704;30;138325;-40
2022/01/07 12:32:50;;;;;;;4.70;2.00;;;5.90;99.90;;;4.37;98.94;100695.91;2568420;30;136891;-39
2022/01/07 12:35:18;;;;;;;8.35;2.20;;;6.00;99.90;;;4.35;98.39;100699.78;2567130;30;138598;-40
2022/01/07 12:37:45;;;;;;;8.73;2.03;;;6.00;99.90;;;4.44;98.73;100694.19;2567679;30;138466;-38
2022/01/07 12:40:13;;;;;;;6.30;2.20;;;6.00;99.90;;;4.50;97.90;100691.78;2568391;30;138206;-38
2022/01/07 12:42:45;;;;;;;6.57;1.88;;;6.10;99.90;;;4.51;97.39;100697.03;2568879;30;136773;-37
2022/01/07 12:45:20;;;;;;;5.95;2.10;;;6.20;99.90;;;4.56;98.52;100705.44;2568911;30;138124;-38
2022/01/07 12:47:48;;;;;;;7.32;1.95;;;6.20;99.90;;;4.55;97.18;100694.84;2567665;30;138265;-37
2022/01/07 12:50:16;;;;;;;7.20;2.30;;;6.20;99.90;;;4.54;97.85;100701.25;2568769;30;138396;-38
2022/01/07 12:52:44;;;;;;;7.00;2.03;;;6.20;99.90;;;4.53;98.07;100695.00;2567509;30;136738;-38
2022/01/07 12:55:22;;;;;;;5.25;2.03;;;6.20;99.90;;;4.58;98.11;100691.78;2566378;30;138383;-37
2022/01/07 12:58:03;;;;;;;5.18;2.10;;;6.20;99.90;;;4.59;98.15;100679.94;2568112;30;136731;-38
2022/01/07 13:00:36;;;;;;;8.90;2.40;;;6.20;99.90;;;4.57;97.87;100684.69;2566415;30;139392;-38
2022/01/07 13:03:12;;;;;;;8.45;2.58;;;6.20;99.90;;;4.63;97.66;100681.28;2565573;30;137280;-37
2022/01/07 13:05:43;;;;;;;6.10;2.60;;;6.30;99.90;;;4.61;97.46;100675.19;2567352;30;137397;-38
2022/01/07 13:08:19;;;;;;;5.95;1.98;;;6.30;99.90;;;4.66;97.84;100671.97;2565797;30;137732;-37
2022/01/07 13:10:58;;;;;;;6.32;2.60;;;6.30;99.90;;;4.67;98.18;100679.91;2566121;30;137844;-38
2022/01/07 13:13:26;;;;;;;4.38;2.38;;;6.30;99.90;;;4.65;98.51;100673.81;2567645;30;138534;-38
2022/01/07 13:16:02;;;;;;;8.40;2.90;;;6.30;99.90;;;4.68;98.11;100665.34;2567928;30;139399;-38
2022/01/07 13:18:35;;;;;;;9.48;2.88;;;6.30;99.90;;;4.66;97.30;100670.09;2564699;30;138188;-38
2022/01/07 13:21:09;;;;;;;8.63;2.58;;;6.30;99.90;;;4.64;96.73;100668.59;2566928;30;138489;-37
2022/01/07 13:23:43;;;;;;;5.75;2.47;;;6.30;99.90;;;4.61;98.07;100664.41;2567008;30;137333;-38
2022/01/07 13:26:12;;;;;;;5.80;2.25;;;6.30;99.90;;;4.60;97.49;100674.34;2566449;30;138135;-38
2022/01/07 13:28:46;;;;;;;7.45;2.83;;;6.30;99.90;;;4.49;98.85;100676.59;2568337;30;137478;-37
2022/01/07 13:31:17;;;;;;;5.60;2.50;;;6.20;99.90;;;4.28;100.00;100669.97;2568452;30;138414;-37
2022/01/07 13:33:45;;;;;;;9.63;2.85;;;6.10;99.90;;;4.04;100.00;100671.72;2568819;30;136857;-37
2022/01/07 13:37:03;;;;;;;8.20;3.10;;;5.90;99.90;;;3.91;100.00;100687.59;2567541;30;138336;-37
2022/01/07 13:39:45;;;;;;;7.53;2.47;;;5.70;99.90;;;3.83;100.00;100678.50;2568236;30;137187;-37
2022/01/07 13:42:21;;;;;;;6.80;2.80;;;5.60;99.90;;;3.72;100.00;100687.81;2566981;30;139426;-38
2022/01/07 13:44:55;;;;;;;5.40;2.10;;;5.50;99.90;;;3.65;100.00;100707.53;2568531;30;137677;-37